sensor_id;sensor_type;location;lat;lon;timestamp;temperature;humidity
6740;DHT22;3407;49.882;10.920;2022-12-10T00:01:06;-2.40;1.00
6740;DHT22;3407;49.882;10.920;2022-12-10T00:06:03;-2.50;1.00
6740;DHT22;3407;49.882;10.920;2022-12-10T00:11:02;-2.50;1.00
6740;DHT22;3407;49.882;10.920;2022-12-10T00:16:02;-2.50;1.00
6740;DHT22;3407;49.882;10.920;2022-12-10T00:20:58;-2.60;1.00
6740;DHT22;3407;49.882;10.920;2022-12-10T00:26:11;-2.50;1.00
6740;DHT22;3407;49.882;10.920;2022-12-10T00:31:21;-2.60;1.00
6740;DHT22;3407;49.882;10.920;2022-12-10T00:36:22;-2.60;1.00
6740;DHT22;3407;49.882;10.920;2022-12-10T00:41:19;-2.60;1.00
6740;DHT22;3407;49.882;10.920;2022-12-10T00:46:16;-2.60;1.00
6740;DHT22;3407;49.882;10.920;2022-12-10T00:51:21;-2.60;1.00
6740;DHT22;3407;49.882;10.920;2022-12-10T00:56:20;-2.60;1.00
6740;DHT22;3407;49.882;10.920;2022-12-10T01:01:22;-2.60;1.00
6740;DHT22;3407;49.882;10.920;2022-12-10T01:06:26;-2.50;1.00
6740;DHT22;3407;49.882;10.920;2022-12-10T01:11:26;-2.50;1.00
6740;DHT22;3407;49.882;10.920;2022-12-10T01:16:22;-2.40;1.00
6740;DHT22;3407;49.882;10.920;2022-12-10T01:21:18;-2.30;1.00
6740;DHT22;3407;49.882;10.920;2022-12-10T01:26:23;-2.30;1.00
6740;DHT22;3407;49.882;10.920;2022-12-10T01:31:21;-2.20;1.00
6740;DHT22;3407;49.882;10.920;2022-12-10T01:36:23;-2.10;1.00
6740;DHT22;3407;49.882;10.920;2022-12-10T01:41:29;-2.00;1.00
6740;DHT22;3407;49.882;10.920;2022-12-10T01:46:31;-2.00;1.00
6740;DHT22;3407;49.882;10.920;2022-12-10T01:51:34;-2.00;1.00
6740;DHT22;3407;49.882;10.920;2022-12-10T01:56:31;-1.90;1.00
6740;DHT22;3407;49.882;10.920;2022-12-10T02:01:40;-1.90;1.00
6740;DHT22;3407;49.882;10.920;2022-12-10T02:06:59;-1.80;1.00
6740;DHT22;3407;49.882;10.920;2022-12-10T02:12:24;-1.70;1.00
6740;DHT22;3407;49.882;10.920;2022-12-10T02:17:41;-1.60;1.00
6740;DHT22;3407;49.882;10.920;2022-12-10T02:23:02;-1.60;1.00
6740;DHT22;3407;49.882;10.920;2022-12-10T02:28:20;-1.60;1.00
6740;DHT22;3407;49.882;10.920;2022-12-10T02:33:19;-1.50;1.00
6740;DHT22;3407;49.882;10.920;2022-12-10T02:38:25;-1.50;1.00
6740;DHT22;3407;49.882;10.920;2022-12-10T02:43:22;-1.40;1.00
6740;DHT22;3407;49.882;10.920;2022-12-10T02:48:19;-1.20;1.00
6740;DHT22;3407;49.882;10.920;2022-12-10T02:53:15;-1.20;1.00
6740;DHT22;3407;49.882;10.920;2022-12-10T03:08:48;-1.10;1.00
6740;DHT22;3407;49.882;10.920;2022-12-10T03:19:04;-1.10;1.00
6740;DHT22;3407;49.882;10.920;2022-12-10T03:24:00;-1.20;1.00
6740;DHT22;3407;49.882;10.920;2022-12-10T03:29:01;-1.20;1.00
6740;DHT22;3407;49.882;10.920;2022-12-10T03:33:58;-1.10;1.00
6740;DHT22;3407;49.882;10.920;2022-12-10T03:38:54;-1.00;1.00
6740;DHT22;3407;49.882;10.920;2022-12-10T03:43:55;-0.90;1.00
6740;DHT22;3407;49.882;10.920;2022-12-10T03:48:51;-0.90;1.00
6740;DHT22;3407;49.882;10.920;2022-12-10T03:53:47;-0.90;1.00
6740;DHT22;3407;49.882;10.920;2022-12-10T03:58:45;-1.00;1.00
6740;DHT22;3407;49.882;10.920;2022-12-10T04:03:42;-1.00;1.00
6740;DHT22;3407;49.882;10.920;2022-12-10T04:08:38;-1.00;1.00
6740;DHT22;3407;49.882;10.920;2022-12-10T04:13:34;-1.00;1.00
6740;DHT22;3407;49.882;10.920;2022-12-10T04:18:49;-1.00;1.00
6740;DHT22;3407;49.882;10.920;2022-12-10T04:23:44;-1.00;1.00
6740;DHT22;3407;49.882;10.920;2022-12-10T04:28:59;-1.00;1.00
6740;DHT22;3407;49.882;10.920;2022-12-10T04:33:54;-0.90;1.00
6740;DHT22;3407;49.882;10.920;2022-12-10T04:38:50;-1.00;1.00
6740;DHT22;3407;49.882;10.920;2022-12-10T04:43:45;-1.00;1.00
6740;DHT22;3407;49.882;10.920;2022-12-10T04:48:41;-0.90;1.00
6740;DHT22;3407;49.882;10.920;2022-12-10T04:53:36;-0.90;1.00
6740;DHT22;3407;49.882;10.920;2022-12-10T04:58:32;-0.80;1.00
6740;DHT22;3407;49.882;10.920;2022-12-10T05:03:28;-0.70;1.00
6740;DHT22;3407;49.882;10.920;2022-12-10T05:08:24;-0.70;1.00
6740;DHT22;3407;49.882;10.920;2022-12-10T05:13:19;-0.70;1.00
6740;DHT22;3407;49.882;10.920;2022-12-10T05:18:15;-0.80;1.00
6740;DHT22;3407;49.882;10.920;2022-12-10T05:23:10;-1.00;1.00
6740;DHT22;3407;49.882;10.920;2022-12-10T05:28:25;-1.00;1.00
6740;DHT22;3407;49.882;10.920;2022-12-10T05:33:20;-1.10;1.00
6740;DHT22;3407;49.882;10.920;2022-12-10T05:38:16;-1.00;1.00
6740;DHT22;3407;49.882;10.920;2022-12-10T05:43:11;-1.00;1.00
6740;DHT22;3407;49.882;10.920;2022-12-10T05:48:09;-1.00;1.00
6740;DHT22;3407;49.882;10.920;2022-12-10T05:53:05;-1.00;1.00
6740;DHT22;3407;49.882;10.920;2022-12-10T05:58:01;-1.00;1.00
6740;DHT22;3407;49.882;10.920;2022-12-10T06:02:57;-1.10;1.00
6740;DHT22;3407;49.882;10.920;2022-12-10T06:07:52;-1.00;1.00
6740;DHT22;3407;49.882;10.920;2022-12-10T06:12:48;-1.10;1.00
6740;DHT22;3407;49.882;10.920;2022-12-10T06:17:43;-1.10;1.00
6740;DHT22;3407;49.882;10.920;2022-12-10T06:22:39;-1.00;1.00
6740;DHT22;3407;49.882;10.920;2022-12-10T06:27:34;-0.90;1.00
6740;DHT22;3407;49.882;10.920;2022-12-10T06:32:30;-0.90;1.00
6740;DHT22;3407;49.882;10.920;2022-12-10T06:37:25;-0.90;1.00
6740;DHT22;3407;49.882;10.920;2022-12-10T06:42:21;-0.90;1.00
6740;DHT22;3407;49.882;10.920;2022-12-10T06:47:17;-0.90;1.00
6740;DHT22;3407;49.882;10.920;2022-12-10T06:52:13;-0.90;1.00
6740;DHT22;3407;49.882;10.920;2022-12-10T06:57:08;-0.90;1.00
6740;DHT22;3407;49.882;10.920;2022-12-10T07:02:04;-0.80;1.00
6740;DHT22;3407;49.882;10.920;2022-12-10T07:06:59;-0.70;1.00
6740;DHT22;3407;49.882;10.920;2022-12-10T07:11:55;-0.70;1.00
6740;DHT22;3407;49.882;10.920;2022-12-10T07:16:50;-0.70;1.00
6740;DHT22;3407;49.882;10.920;2022-12-10T07:21:46;-0.70;1.00
6740;DHT22;3407;49.882;10.920;2022-12-10T07:26:43;-0.70;1.00
6740;DHT22;3407;49.882;10.920;2022-12-10T07:31:39;-0.60;1.00
6740;DHT22;3407;49.882;10.920;2022-12-10T07:36:35;-0.50;1.00
6740;DHT22;3407;49.882;10.920;2022-12-10T07:41:31;-0.50;1.00
6740;DHT22;3407;49.882;10.920;2022-12-10T07:46:29;-0.40;1.00
6740;DHT22;3407;49.882;10.920;2022-12-10T07:51:25;-0.30;1.00
6740;DHT22;3407;49.882;10.920;2022-12-10T07:56:21;-0.20;1.00
6740;DHT22;3407;49.882;10.920;2022-12-10T08:01:25;0.00;1.00
6740;DHT22;3407;49.882;10.920;2022-12-10T08:06:21;0.00;1.00
6740;DHT22;3407;49.882;10.920;2022-12-10T08:11:18;0.10;1.00
6740;DHT22;3407;49.882;10.920;2022-12-10T08:16:17;0.10;1.00
6740;DHT22;3407;49.882;10.920;2022-12-10T08:21:18;0.20;1.00
6740;DHT22;3407;49.882;10.920;2022-12-10T08:26:32;0.20;1.00
6740;DHT22;3407;49.882;10.920;2022-12-10T08:31:29;0.20;1.00
6740;DHT22;3407;49.882;10.920;2022-12-10T08:36:24;0.20;1.00
6740;DHT22;3407;49.882;10.920;2022-12-10T08:41:21;0.30;1.00
6740;DHT22;3407;49.882;10.920;2022-12-10T08:46:17;0.40;1.00
6740;DHT22;3407;49.882;10.920;2022-12-10T08:51:18;0.50;1.00
6740;DHT22;3407;49.882;10.920;2022-12-10T08:56:14;0.60;1.00
6740;DHT22;3407;49.882;10.920;2022-12-10T09:01:12;0.60;1.00
6740;DHT22;3407;49.882;10.920;2022-12-10T09:06:12;0.70;1.00
6740;DHT22;3407;49.882;10.920;2022-12-10T09:11:14;0.80;1.00
6740;DHT22;3407;49.882;10.920;2022-12-10T09:16:11;0.90;1.00
6740;DHT22;3407;49.882;10.920;2022-12-10T09:21:12;1.00;1.00
6740;DHT22;3407;49.882;10.920;2022-12-10T09:26:13;1.00;1.00
6740;DHT22;3407;49.882;10.920;2022-12-10T09:31:10;1.10;1.00
6740;DHT22;3407;49.882;10.920;2022-12-10T09:36:07;1.30;1.00
6740;DHT22;3407;49.882;10.920;2022-12-10T09:46:41;1.80;1.00
6740;DHT22;3407;49.882;10.920;2022-12-10T09:51:40;2.00;1.00
6740;DHT22;3407;49.882;10.920;2022-12-10T09:56:37;2.50;1.00
6740;DHT22;3407;49.882;10.920;2022-12-10T10:01:35;3.00;1.00
6740;DHT22;3407;49.882;10.920;2022-12-10T10:06:31;3.20;99.90
6740;DHT22;3407;49.882;10.920;2022-12-10T10:11:31;3.20;99.90
6740;DHT22;3407;49.882;10.920;2022-12-10T10:16:42;3.40;99.90
6740;DHT22;3407;49.882;10.920;2022-12-10T10:21:43;3.80;1.00
6740;DHT22;3407;49.882;10.920;2022-12-10T10:26:40;3.60;1.00
6740;DHT22;3407;49.882;10.920;2022-12-10T10:31:38;3.50;1.00
6740;DHT22;3407;49.882;10.920;2022-12-10T10:36:36;3.30;99.90
6740;DHT22;3407;49.882;10.920;2022-12-10T10:41:36;3.10;99.90
6740;DHT22;3407;49.882;10.920;2022-12-10T10:46:35;3.10;66.50
6740;DHT22;3407;49.882;10.920;2022-12-10T10:51:42;3.20;1.00
6740;DHT22;3407;49.882;10.920;2022-12-10T10:56:42;3.20;99.90
6740;DHT22;3407;49.882;10.920;2022-12-10T11:01:53;3.20;1.00
6740;DHT22;3407;49.882;10.920;2022-12-10T11:06:52;3.40;99.90
6740;DHT22;3407;49.882;10.920;2022-12-10T11:12:02;3.50;1.00
6740;DHT22;3407;49.882;10.920;2022-12-10T11:17:19;3.50;10.90
6740;DHT22;3407;49.882;10.920;2022-12-10T11:22:19;3.50;99.90
6740;DHT22;3407;49.882;10.920;2022-12-10T11:38:05;3.60;1.00
6740;DHT22;3407;49.882;10.920;2022-12-10T11:43:31;3.60;1.00
6740;DHT22;3407;49.882;10.920;2022-12-10T11:48:49;3.20;1.00
6740;DHT22;3407;49.882;10.920;2022-12-10T11:59:43;3.10;99.90
6740;DHT22;3407;49.882;10.920;2022-12-10T12:10:28;3.80;99.90
6740;DHT22;3407;49.882;10.920;2022-12-10T12:15:34;4.00;3.20
6740;DHT22;3407;49.882;10.920;2022-12-10T12:25:32;4.10;1.00
6740;DHT22;3407;49.882;10.920;2022-12-10T12:30:32;3.90;29.70
6740;DHT22;3407;49.882;10.920;2022-12-10T12:40:43;3.40;99.90
6740;DHT22;3407;49.882;10.920;2022-12-10T12:45:48;3.50;99.90
6740;DHT22;3407;49.882;10.920;2022-12-10T12:50:58;3.60;99.90
6740;DHT22;3407;49.882;10.920;2022-12-10T13:06:30;3.70;99.90
6740;DHT22;3407;49.882;10.920;2022-12-10T13:11:32;3.60;99.90
6740;DHT22;3407;49.882;10.920;2022-12-10T13:21:33;3.40;1.00
6740;DHT22;3407;49.882;10.920;2022-12-10T13:26:30;3.50;67.10
6740;DHT22;3407;49.882;10.920;2022-12-10T13:41:31;3.30;1.00
6740;DHT22;3407;49.882;10.920;2022-12-10T13:46:59;3.20;99.90
6740;DHT22;3407;49.882;10.920;2022-12-10T13:57:01;2.90;99.90
6740;DHT22;3407;49.882;10.920;2022-12-10T14:07:16;2.70;1.00
6740;DHT22;3407;49.882;10.920;2022-12-10T14:12:29;2.40;99.90
6740;DHT22;3407;49.882;10.920;2022-12-10T14:17:40;2.50;1.00
6740;DHT22;3407;49.882;10.920;2022-12-10T14:22:43;2.50;1.00
6740;DHT22;3407;49.882;10.920;2022-12-10T14:27:40;2.50;1.00
6740;DHT22;3407;49.882;10.920;2022-12-10T14:32:37;2.40;1.00
6740;DHT22;3407;49.882;10.920;2022-12-10T14:37:36;2.30;1.00
6740;DHT22;3407;49.882;10.920;2022-12-10T14:42:32;2.30;1.00
6740;DHT22;3407;49.882;10.920;2022-12-10T14:47:32;2.20;1.00
6740;DHT22;3407;49.882;10.920;2022-12-10T14:52:34;2.00;1.00
6740;DHT22;3407;49.882;10.920;2022-12-10T14:57:38;2.00;1.00
6740;DHT22;3407;49.882;10.920;2022-12-10T15:02:40;1.90;1.00
6740;DHT22;3407;49.882;10.920;2022-12-10T15:07:36;1.80;1.00
6740;DHT22;3407;49.882;10.920;2022-12-10T15:12:42;1.70;1.00
6740;DHT22;3407;49.882;10.920;2022-12-10T15:17:42;1.60;1.00
6740;DHT22;3407;49.882;10.920;2022-12-10T15:22:38;1.50;1.00
6740;DHT22;3407;49.882;10.920;2022-12-10T15:27:33;1.50;1.00
6740;DHT22;3407;49.882;10.920;2022-12-10T15:32:29;1.40;1.00
6740;DHT22;3407;49.882;10.920;2022-12-10T15:37:38;1.30;1.00
6740;DHT22;3407;49.882;10.920;2022-12-10T15:42:43;1.40;1.00
6740;DHT22;3407;49.882;10.920;2022-12-10T15:47:39;1.40;1.00
6740;DHT22;3407;49.882;10.920;2022-12-10T15:52:35;1.40;1.00
6740;DHT22;3407;49.882;10.920;2022-12-10T15:57:33;1.40;1.00
6740;DHT22;3407;49.882;10.920;2022-12-10T16:07:28;1.30;1.00
6740;DHT22;3407;49.882;10.920;2022-12-10T16:12:24;1.30;1.00
6740;DHT22;3407;49.882;10.920;2022-12-10T16:17:19;1.30;1.00
6740;DHT22;3407;49.882;10.920;2022-12-10T16:22:15;1.30;1.00
6740;DHT22;3407;49.882;10.920;2022-12-10T16:27:12;1.30;1.00
6740;DHT22;3407;49.882;10.920;2022-12-10T16:32:12;1.40;1.00
6740;DHT22;3407;49.882;10.920;2022-12-10T16:37:08;1.30;1.00
6740;DHT22;3407;49.882;10.920;2022-12-10T16:42:04;1.40;1.00
6740;DHT22;3407;49.882;10.920;2022-12-10T16:47:00;1.30;1.00
6740;DHT22;3407;49.882;10.920;2022-12-10T16:51:55;1.30;1.00
6740;DHT22;3407;49.882;10.920;2022-12-10T16:56:51;1.30;99.90
6740;DHT22;3407;49.882;10.920;2022-12-10T17:01:47;1.20;1.00
6740;DHT22;3407;49.882;10.920;2022-12-10T17:06:42;1.20;99.90
6740;DHT22;3407;49.882;10.920;2022-12-10T17:11:40;1.20;99.90
6740;DHT22;3407;49.882;10.920;2022-12-10T17:16:39;1.20;1.00
6740;DHT22;3407;49.882;10.920;2022-12-10T17:21:35;1.10;1.00
6740;DHT22;3407;49.882;10.920;2022-12-10T17:26:33;1.10;1.00
6740;DHT22;3407;49.882;10.920;2022-12-10T17:31:30;1.00;1.00
6740;DHT22;3407;49.882;10.920;2022-12-10T17:36:25;0.90;1.00
6740;DHT22;3407;49.882;10.920;2022-12-10T17:41:22;0.80;1.00
6740;DHT22;3407;49.882;10.920;2022-12-10T17:46:23;0.80;1.00
6740;DHT22;3407;49.882;10.920;2022-12-10T17:51:19;0.70;1.00
6740;DHT22;3407;49.882;10.920;2022-12-10T17:56:20;0.80;1.00
6740;DHT22;3407;49.882;10.920;2022-12-10T18:01:17;0.70;1.00
6740;DHT22;3407;49.882;10.920;2022-12-10T18:06:21;0.60;1.00
6740;DHT22;3407;49.882;10.920;2022-12-10T18:11:26;0.50;1.00
6740;DHT22;3407;49.882;10.920;2022-12-10T18:16:24;0.40;1.00
6740;DHT22;3407;49.882;10.920;2022-12-10T18:21:22;0.30;1.00
6740;DHT22;3407;49.882;10.920;2022-12-10T18:26:23;0.30;1.00
6740;DHT22;3407;49.882;10.920;2022-12-10T18:31:25;0.30;1.00
6740;DHT22;3407;49.882;10.920;2022-12-10T18:36:26;0.40;1.00
6740;DHT22;3407;49.882;10.920;2022-12-10T18:41:22;0.50;1.00
6740;DHT22;3407;49.882;10.920;2022-12-10T18:46:20;0.50;1.00
6740;DHT22;3407;49.882;10.920;2022-12-10T18:51:17;0.60;1.00
6740;DHT22;3407;49.882;10.920;2022-12-10T18:56:18;0.70;1.00
6740;DHT22;3407;49.882;10.920;2022-12-10T19:01:17;0.70;1.00
6740;DHT22;3407;49.882;10.920;2022-12-10T19:06:15;0.80;1.00
6740;DHT22;3407;49.882;10.920;2022-12-10T19:11:11;0.70;1.00
6740;DHT22;3407;49.882;10.920;2022-12-10T19:16:11;0.70;1.00
6740;DHT22;3407;49.882;10.920;2022-12-10T19:21:07;0.70;1.00
6740;DHT22;3407;49.882;10.920;2022-12-10T19:26:03;0.70;1.00
6740;DHT22;3407;49.882;10.920;2022-12-10T19:30:58;0.70;1.00
6740;DHT22;3407;49.882;10.920;2022-12-10T19:35:54;0.70;1.00
6740;DHT22;3407;49.882;10.920;2022-12-10T19:40:50;0.70;1.00
6740;DHT22;3407;49.882;10.920;2022-12-10T19:45:46;0.70;1.00
6740;DHT22;3407;49.882;10.920;2022-12-10T19:50:41;0.70;1.00
6740;DHT22;3407;49.882;10.920;2022-12-10T19:55:37;0.60;1.00
6740;DHT22;3407;49.882;10.920;2022-12-10T20:00:32;0.60;1.00
6740;DHT22;3407;49.882;10.920;2022-12-10T20:05:28;0.60;1.00
6740;DHT22;3407;49.882;10.920;2022-12-10T20:10:26;0.40;99.90
6740;DHT22;3407;49.882;10.920;2022-12-10T20:15:23;0.30;1.00
6740;DHT22;3407;49.882;10.920;2022-12-10T20:20:25;0.10;1.00
6740;DHT22;3407;49.882;10.920;2022-12-10T20:25:22;-0.10;1.00
6740;DHT22;3407;49.882;10.920;2022-12-10T20:30:20;-0.20;1.00
6740;DHT22;3407;49.882;10.920;2022-12-10T20:35:18;-0.30;1.00
6740;DHT22;3407;49.882;10.920;2022-12-10T20:40:19;-0.40;1.00
6740;DHT22;3407;49.882;10.920;2022-12-10T20:45:15;-0.50;1.00
6740;DHT22;3407;49.882;10.920;2022-12-10T20:50:14;-0.60;1.00
6740;DHT22;3407;49.882;10.920;2022-12-10T20:55:10;-0.70;1.00
6740;DHT22;3407;49.882;10.920;2022-12-10T21:00:11;-0.80;1.00
6740;DHT22;3407;49.882;10.920;2022-12-10T21:05:07;-0.80;1.00
6740;DHT22;3407;49.882;10.920;2022-12-10T21:10:03;-0.90;1.00
6740;DHT22;3407;49.882;10.920;2022-12-10T21:14:59;-1.00;1.00
6740;DHT22;3407;49.882;10.920;2022-12-10T21:19:55;-1.10;1.00
6740;DHT22;3407;49.882;10.920;2022-12-10T21:24:50;-1.10;1.00
6740;DHT22;3407;49.882;10.920;2022-12-10T21:29:46;-1.20;1.00
6740;DHT22;3407;49.882;10.920;2022-12-10T21:34:41;-1.30;1.00
6740;DHT22;3407;49.882;10.920;2022-12-10T21:39:37;-1.40;1.00
6740;DHT22;3407;49.882;10.920;2022-12-10T21:44:32;-1.40;1.00
6740;DHT22;3407;49.882;10.920;2022-12-10T21:49:28;-1.50;1.00
6740;DHT22;3407;49.882;10.920;2022-12-10T21:54:23;-1.50;1.00
6740;DHT22;3407;49.882;10.920;2022-12-10T21:59:19;-1.60;1.00
6740;DHT22;3407;49.882;10.920;2022-12-10T22:04:14;-1.60;1.00
6740;DHT22;3407;49.882;10.920;2022-12-10T22:09:10;-1.60;1.00
6740;DHT22;3407;49.882;10.920;2022-12-10T22:14:08;-1.60;1.00
6740;DHT22;3407;49.882;10.920;2022-12-10T22:19:03;-1.70;1.00
6740;DHT22;3407;49.882;10.920;2022-12-10T22:23:59;-1.80;1.00
6740;DHT22;3407;49.882;10.920;2022-12-10T22:28:55;-1.80;1.00
6740;DHT22;3407;49.882;10.920;2022-12-10T22:33:51;-1.70;1.00
6740;DHT22;3407;49.882;10.920;2022-12-10T22:38:46;-1.70;1.00
6740;DHT22;3407;49.882;10.920;2022-12-10T22:43:42;-1.60;1.00
6740;DHT22;3407;49.882;10.920;2022-12-10T22:48:37;-1.50;1.00
6740;DHT22;3407;49.882;10.920;2022-12-10T22:53:34;-1.50;1.00
6740;DHT22;3407;49.882;10.920;2022-12-10T22:58:29;-1.40;1.00
6740;DHT22;3407;49.882;10.920;2022-12-10T23:03:25;-1.40;1.00
6740;DHT22;3407;49.882;10.920;2022-12-10T23:08:22;-1.30;1.00
6740;DHT22;3407;49.882;10.920;2022-12-10T23:13:17;-1.30;1.00
6740;DHT22;3407;49.882;10.920;2022-12-10T23:18:16;-1.20;1.00
6740;DHT22;3407;49.882;10.920;2022-12-10T23:23:12;-1.20;1.00
6740;DHT22;3407;49.882;10.920;2022-12-10T23:28:09;-1.10;1.00
6740;DHT22;3407;49.882;10.920;2022-12-10T23:33:04;-1.20;1.00
6740;DHT22;3407;49.882;10.920;2022-12-10T23:38:00;-1.20;1.00
6740;DHT22;3407;49.882;10.920;2022-12-10T23:42:55;-1.20;1.00
6740;DHT22;3407;49.882;10.920;2022-12-10T23:47:51;-1.30;1.00
6740;DHT22;3407;49.882;10.920;2022-12-10T23:52:46;-1.20;1.00
6740;DHT22;3407;49.882;10.920;2022-12-10T23:57:42;-1.10;1.00
